Prince Madog — ZNLJ5 — position and weather

sailwx.info

Track history (hours):
 
Tides and Currents Weather Stations Pressure Air Temp Water Temp Dewpoint Dewpoint Depression Visibility Wind Speed Wind Dir Waves Ship Positions

Oceanographic research ship Prince Madog (UK)

Detailed information on ship capabilities available from University of Delaware's Ocean Information Center.

Last reported at 2017-Apr-09 13:49 UTC. Time now 2017-Apr-30 20:40 UTC.
Position N 53°14' W 004°09'.
Warning: this ship's position is 21 days out of date.

Length 35 m; draft 3.9 m.

Type: Ship. MMSI: 235234000.

Date/timePositionNaut miles runAvg speedWind from/ knotsBaromVisibWave heightAir tempDewpointWater temp
2017-Apr-09 13:49N 53°14' W 004°09'3 7.6
2017-Apr-09 13:28N 53°16' W 004°05'3 5.7
2017-Apr-09 12:59N 53°18' W 004°03'45 7.0
2017-Apr-09 06:31N 53°59' W 004°36'1 8.0
2017-Apr-09 06:27N 53°59' W 004°35'4 8.1
2017-Apr-09 05:59N 54°02' W 004°32'5 8.5
2017-Apr-09 05:25N 54°06' W 004°29'4 0.3
2017-Apr-08 17:14N 54°10' W 004°26'1 5.4
2017-Apr-08 17:00N 54°10' W 004°24'4 5.6
2017-Apr-08 16:22N 54°13' W 004°21'3 6.3
2017-Apr-08 15:54N 54°16' W 004°18'3 7.1
2017-Apr-08 15:30N 54°19' W 004°17'4 7.4
2017-Apr-08 14:59N 54°22' W 004°20'7 7.7
2017-Apr-08 14:00N 54°29' W 004°16'3 5.3
2017-Apr-08 13:30N 54°31' W 004°12'1 1.7
2017-Apr-08 13:00N 54°31' W 004°11'1 2.3
2017-Apr-08 12:30N 54°32' W 004°09'2 4.2
2017-Apr-08 12:00N 54°32' W 004°12'1 1.7
2017-Apr-08 11:29N 54°33' W 004°14'1 2.5
2017-Apr-08 11:00N 54°32' W 004°12'1 2.5
2017-Apr-08 10:30N 54°33' W 004°14'2 3.7
2017-Apr-08 09:58N 54°31' W 004°16'1 2.5
2017-Apr-08 09:26N 54°32' W 004°18'1 2.3
2017-Apr-08 09:00N 54°31' W 004°18'2 2.9
2017-Apr-08 08:29N 54°29' W 004°19'5 9.5
2017-Apr-08 08:00N 54°25' W 004°21'4 6.8
2017-Apr-08 07:27N 54°21' W 004°19'1 2.2
2017-Apr-08 06:59N 54°21' W 004°20'1 2.7
2017-Apr-08 06:30N 54°21' W 004°18'1 2.7
2017-Apr-08 06:00N 54°21' W 004°20'0 0.5
2017-Apr-08 05:30N 54°21' W 004°21'0 0.0
2017-Apr-08 05:00N 54°21' W 004°21'0 0.0
2017-Apr-08 04:26N 54°21' W 004°21'0 0.0
2017-Apr-08 03:59N 54°21' W 004°21'0 0.0
2017-Apr-08 03:30N 54°21' W 004°21'0 0.0
2017-Apr-08 02:59N 54°21' W 004°21'0 0.0
2017-Apr-08 02:28N 54°21' W 004°21'0 0.0
2017-Apr-08 01:56N 54°21' W 004°21'0 0.0
2017-Apr-08 01:17N 54°21' W 004°21'0 0.0
2017-Apr-08 00:51N 54°21' W 004°21'0 0.0
2017-Apr-08 00:25N 54°21' W 004°21'0 0.0
2017-Apr-08 00:00N 54°21' W 004°21'0 0.0
2017-Apr-07 23:25N 54°21' W 004°21'0 0.0
2017-Apr-07 22:59N 54°21' W 004°21'0 0.0
2017-Apr-07 22:28N 54°21' W 004°21'0 0.0
2017-Apr-07 21:03N 54°21' W 004°21'0 0.0
2017-Apr-07 20:59N 54°21' W 004°21'0 0.0
2017-Apr-07 20:30N 54°21' W 004°21'0 0.0
2017-Apr-07 19:50N 54°21' W 004°21'0 0.0
2017-Apr-07 19:30N 54°21' W 004°21'0 0.0
2017-Apr-07 19:00N 54°21' W 004°21'0 0.0
2017-Apr-07 18:27N 54°21' W 004°21'0 0.0
2017-Apr-07 18:00N 54°21' W 004°21'2 4.3
2017-Apr-07 17:27N 54°24' W 004°21'4 9.1
2017-Apr-07 16:58N 54°26' W 004°27'511.6
2017-Apr-07 16:30N 54°27' W 004°37'510.9
2017-Apr-07 16:00N 54°27' W 004°46'2 4.1
2017-Apr-07 15:30N 54°26' W 004°49'2 3.2
2017-Apr-07 15:00N 54°24' W 004°49'4 3.8
2017-Apr-07 14:00N 54°20' W 004°48'3 6.9
2017-Apr-07 13:30N 54°23' W 004°44'2 2.7
2017-Apr-07 12:48N 54°25' W 004°45'1 1.8
2017-Apr-07 12:30N 54°24' W 004°45'3 5.8
2017-Apr-07 12:00N 54°25' W 004°41'0 0.8
2017-Apr-07 11:26N 54°25' W 004°41'4 8.5
2017-Apr-07 11:00N 54°22' W 004°39'2 3.3
2017-Apr-07 10:30N 54°20' W 004°40'3 6.0
2017-Apr-07 09:58N 54°18' W 004°44'1 2.4
2017-Apr-07 09:30N 54°17' W 004°45'2 4.9
2017-Apr-07 09:00N 54°19' W 004°44'1 2.5
2017-Apr-07 08:30N 54°18' W 004°42'1 2.3
2017-Apr-07 07:59N 54°19' W 004°44'1 1.1
2017-Apr-07 07:30N 54°19' W 004°43'1 2.9
2017-Apr-07 07:00N 54°17' W 004°44'0 0.5
2017-Apr-07 06:30N 54°18' W 004°44'3 6.4
2017-Apr-07 05:59N 54°14' W 004°42'0 0.6
2017-Apr-07 05:22N 54°14' W 004°42'0 0.0
2017-Apr-07 04:55N 54°14' W 004°42'0 0.0
2017-Apr-07 04:25N 54°14' W 004°42'0 0.0
2017-Apr-07 03:58N 54°14' W 004°42'0 0.0
2017-Apr-07 03:19N 54°14' W 004°42'0 0.0
2017-Apr-07 01:37N 54°14' W 004°42'0 0.0
2017-Apr-07 01:22N 54°14' W 004°42'0 0.0
2017-Apr-06 21:31N 54°14' W 004°42'0 0.0
2017-Apr-06 21:19N 54°14' W 004°42'0 0.0
2017-Apr-06 20:46N 54°14' W 004°42'0 0.0
2017-Apr-06 19:58N 54°14' W 004°42'0 0.0
2017-Apr-06 19:28N 54°14' W 004°42'5 5.2
2017-Apr-06 18:32N 54°19' W 004°43'0 2.2
2017-Apr-06 18:30N 54°19' W 004°43'0 0.8
2017-Apr-06 18:00N 54°19' W 004°43'2 4.9
2017-Apr-06 17:30N 54°20' W 004°39'1 1.3
2017-Apr-06 16:57N 54°20' W 004°40'2 4.4
2017-Apr-06 16:30N 54°19' W 004°43'0 0.5
2017-Apr-06 16:00N 54°19' W 004°43'1 1.6
2017-Apr-06 15:30N 54°18' W 004°42'3 5.7
2017-Apr-06 15:00N 54°16' W 004°44'5 5.1
2017-Apr-06 14:00N 54°11' W 004°48'1 2.8
2017-Apr-06 13:30N 54°10' W 004°49'3 6.2
2017-Apr-06 13:00N 54°07' W 004°52'1 2.7
2017-Apr-06 12:30N 54°09' W 004°52'0 0.5
2017-Apr-06 12:00N 54°09' W 004°52'2 3.7
2017-Apr-06 11:30N 54°07' W 004°52'3 5.3
2017-Apr-06 10:58N 54°09' W 004°49'1 2.1
2017-Apr-06 10:27N 54°08' W 004°49'2 2.7
2017-Apr-06 09:44N 54°06' W 004°49'2 9.1
2017-Apr-06 09:29N 54°05' W 004°52'1 2.9
2017-Apr-06 09:00N 54°04' W 004°54'3 6.2
2017-Apr-06 08:29N 54°01' W 004°56'1 1.3
2017-Apr-06 08:00N 54°01' W 004°57'4 9.0
2017-Apr-06 07:30N 54°01' W 004°50'4 8.2
2017-Apr-06 06:58N 54°04' W 004°43'1 2.6
2017-Apr-06 06:30N 54°04' W 004°41'3 2.6
2017-Apr-06 05:17N 54°05' W 004°36'0 0.0
2017-Apr-06 04:14N 54°05' W 004°36'0 0.0
2017-Apr-06 03:59N 54°05' W 004°36'0 0.0
2017-Apr-06 03:29N 54°05' W 004°36'0 0.0
2017-Apr-06 01:38N 54°05' W 004°36'0 0.0
2017-Apr-06 01:26N 54°05' W 004°36'0 0.0
2017-Apr-06 00:53N 54°05' W 004°36'0 0.0
2017-Apr-06 00:17N 54°05' W 004°36'0 0.0
2017-Apr-05 23:59N 54°05' W 004°36'0 0.0
2017-Apr-05 23:23N 54°05' W 004°36'0 0.0
2017-Apr-05 22:53N 54°05' W 004°36'0 0.0
2017-Apr-05 21:53N 54°05' W 004°36'0 0.0
2017-Apr-05 19:29N 54°05' W 004°36'0 0.0
2017-Apr-05 18:44N 54°05' W 004°36'0 0.0
2017-Apr-05 18:26N 54°05' W 004°36'0 0.0
2017-Apr-05 17:47N 54°05' W 004°36'0 0.1
2017-Apr-05 17:30N 54°05' W 004°36'4 1.3
2017-Apr-05 14:50N 54°03' W 004°42'2 5.8
2017-Apr-05 14:29N 54°03' W 004°38'6 5.2
2017-Apr-05 13:24N 54°02' W 004°29'3 7.5
2017-Apr-05 13:00N 54°04' W 004°25'3 4.4
2017-Apr-05 12:23N 54°03' W 004°21'2 3.2
2017-Apr-05 11:53N 54°01' W 004°21'3 6.5
2017-Apr-05 11:30N 53°60' W 004°23'1 3.0
2017-Apr-05 11:00N 53°59' W 004°25'10 3.8
2017-Apr-05 08:30N 54°02' W 004°10'8 5.3
2017-Apr-05 07:05N 54°08' W 004°20'0 2.5
2017-Apr-05 07:00N 54°07' W 004°20'5 0.4
2017-Apr-04 18:42N 54°12' W 004°19'1 2.5
2017-Apr-04 18:08N 54°11' W 004°19'2 5.0
2017-Apr-04 17:45N 54°10' W 004°16'1 2.5
2017-Apr-04 17:26N 54°10' W 004°15'4 7.9
2017-Apr-04 16:57N 54°07' W 004°16'2 3.8
2017-Apr-04 16:21N 54°04' W 004°16'4 3.3
2017-Apr-04 15:16N 54°07' W 004°11'1 2.2
2017-Apr-04 14:54N 54°08' W 004°11'5 5.3
2017-Apr-04 14:00N 54°11' W 004°05'3 5.0
2017-Apr-04 13:27N 54°13' W 004°02'5 4.3
2017-Apr-04 12:22N 54°14' W 004°10'2 4.8
2017-Apr-04 11:58N 54°12' W 004°12'2 4.3
2017-Apr-04 11:25N 54°14' W 004°14'2 4.2
2017-Apr-04 11:00N 54°15' W 004°16'3 2.0
2017-Apr-04 09:22N 54°13' W 004°21'2 2.1
2017-Apr-04 08:39N 54°12' W 004°22'2 8.3
2017-Apr-04 08:23N 54°10' W 004°24'3 0.1
2017-Apr-02 18:01N 54°09' W 004°28'0 5.1
2017-Apr-02 18:00N 54°09' W 004°28'4 6.8
2017-Apr-02 17:24N 54°06' W 004°32'3 7.8
2017-Apr-02 17:00N 54°03' W 004°36'3 6.5
2017-Apr-02 16:30N 54°02' W 004°41'9 8.7
2017-Apr-02 15:31N 53°59' W 004°54'1 2.6
2017-Apr-02 15:00N 53°59' W 004°52'4 4.3
2017-Apr-02 13:59N 53°55' W 004°56'3 5.2
2017-Apr-02 13:24N 53°53' W 004°53'1 2.5
2017-Apr-02 12:51N 53°53' W 004°51'7 1.9
2017-Apr-02 09:01N 53°59' W 004°43'1 2.6
2017-Apr-02 08:42N 53°59' W 004°44'1 1.2
2017-Apr-02 07:58N 53°58' W 004°43'5 9.5
2017-Apr-02 07:26N 54°01' W 004°36'1 1.9
2017-Apr-02 06:54N 54°01' W 004°34'510.1
2017-Apr-02 06:26N 54°05' W 004°29'4 8.9
2017-Apr-02 05:58N 54°09' W 004°28'1 0.0
2017-Apr-01 09:58N 54°09' W 004°27'3 3.7
2017-Apr-01 09:11N 54°06' W 004°28'2 1.2
2017-Apr-01 07:47N 54°05' W 004°30'1 2.9
2017-Apr-01 07:29N 54°04' W 004°31'1 1.4
2017-Apr-01 07:01N 54°04' W 004°31'3 4.6
2017-Apr-01 06:20N 54°06' W 004°28'3 8.2
2017-Apr-01 06:00N 54°09' W 004°28'  
Track history (hours):
 
Tides and Currents Weather Stations Pressure Air Temp Water Temp Dewpoint Dewpoint Depression Visibility Wind Speed Wind Dir Waves Ship Positions

Oceanographic research ship Prince Madog (UK)

Detailed information on ship capabilities available from University of Delaware's Ocean Information Center.

Last reported at 2017-Apr-09 13:49 UTC. Time now 2017-Apr-30 20:40 UTC.
Position N 53°14' W 004°09'.
Warning: this ship's position is 21 days out of date.

Length 35 m; draft 3.9 m.

Type: Ship. MMSI: 235234000.

Date/timePositionNaut miles runAvg speedWind from/ knotsBaromVisibWave heightAir tempDewpointWater temp
2017-Apr-09 13:49N 53°14' W 004°09'3 7.6
2017-Apr-09 13:28N 53°16' W 004°05'3 5.7
2017-Apr-09 12:59N 53°18' W 004°03'45 7.0
2017-Apr-09 06:31N 53°59' W 004°36'1 8.0
2017-Apr-09 06:27N 53°59' W 004°35'4 8.1
2017-Apr-09 05:59N 54°02' W 004°32'5 8.5
2017-Apr-09 05:25N 54°06' W 004°29'4 0.3
2017-Apr-08 17:14N 54°10' W 004°26'1 5.4
2017-Apr-08 17:00N 54°10' W 004°24'4 5.6
2017-Apr-08 16:22N 54°13' W 004°21'3 6.3
2017-Apr-08 15:54N 54°16' W 004°18'3 7.1
2017-Apr-08 15:30N 54°19' W 004°17'4 7.4
2017-Apr-08 14:59N 54°22' W 004°20'7 7.7
2017-Apr-08 14:00N 54°29' W 004°16'3 5.3
2017-Apr-08 13:30N 54°31' W 004°12'1 1.7
2017-Apr-08 13:00N 54°31' W 004°11'1 2.3
2017-Apr-08 12:30N 54°32' W 004°09'2 4.2
2017-Apr-08 12:00N 54°32' W 004°12'1 1.7
2017-Apr-08 11:29N 54°33' W 004°14'1 2.5
2017-Apr-08 11:00N 54°32' W 004°12'1 2.5
2017-Apr-08 10:30N 54°33' W 004°14'2 3.7
2017-Apr-08 09:58N 54°31' W 004°16'1 2.5
2017-Apr-08 09:26N 54°32' W 004°18'1 2.3
2017-Apr-08 09:00N 54°31' W 004°18'2 2.9
2017-Apr-08 08:29N 54°29' W 004°19'5 9.5
2017-Apr-08 08:00N 54°25' W 004°21'4 6.8
2017-Apr-08 07:27N 54°21' W 004°19'1 2.2
2017-Apr-08 06:59N 54°21' W 004°20'1 2.7
2017-Apr-08 06:30N 54°21' W 004°18'1 2.7
2017-Apr-08 06:00N 54°21' W 004°20'0 0.5
2017-Apr-08 05:30N 54°21' W 004°21'0 0.0
2017-Apr-08 05:00N 54°21' W 004°21'0 0.0
2017-Apr-08 04:26N 54°21' W 004°21'0 0.0
2017-Apr-08 03:59N 54°21' W 004°21'0 0.0
2017-Apr-08 03:30N 54°21' W 004°21'0 0.0
2017-Apr-08 02:59N 54°21' W 004°21'0 0.0
2017-Apr-08 02:28N 54°21' W 004°21'0 0.0
2017-Apr-08 01:56N 54°21' W 004°21'0 0.0
2017-Apr-08 01:17N 54°21' W 004°21'0 0.0
2017-Apr-08 00:51N 54°21' W 004°21'0 0.0
2017-Apr-08 00:25N 54°21' W 004°21'0 0.0
2017-Apr-08 00:00N 54°21' W 004°21'0 0.0
2017-Apr-07 23:25N 54°21' W 004°21'0 0.0
2017-Apr-07 22:59N 54°21' W 004°21'0 0.0
2017-Apr-07 22:28N 54°21' W 004°21'0 0.0
2017-Apr-07 21:03N 54°21' W 004°21'0 0.0
2017-Apr-07 20:59N 54°21' W 004°21'0 0.0
2017-Apr-07 20:30N 54°21' W 004°21'0 0.0
2017-Apr-07 19:50N 54°21' W 004°21'0 0.0
2017-Apr-07 19:30N 54°21' W 004°21'0 0.0
2017-Apr-07 19:00N 54°21' W 004°21'0 0.0
2017-Apr-07 18:27N 54°21' W 004°21'0 0.0
2017-Apr-07 18:00N 54°21' W 004°21'2 4.3
2017-Apr-07 17:27N 54°24' W 004°21'4 9.1
2017-Apr-07 16:58N 54°26' W 004°27'511.6
2017-Apr-07 16:30N 54°27' W 004°37'510.9
2017-Apr-07 16:00N 54°27' W 004°46'2 4.1
2017-Apr-07 15:30N 54°26' W 004°49'2 3.2
2017-Apr-07 15:00N 54°24' W 004°49'4 3.8
2017-Apr-07 14:00N 54°20' W 004°48'3 6.9
2017-Apr-07 13:30N 54°23' W 004°44'2 2.7
2017-Apr-07 12:48N 54°25' W 004°45'1 1.8
2017-Apr-07 12:30N 54°24' W 004°45'3 5.8
2017-Apr-07 12:00N 54°25' W 004°41'0 0.8
2017-Apr-07 11:26N 54°25' W 004°41'4 8.5
2017-Apr-07 11:00N 54°22' W 004°39'2 3.3
2017-Apr-07 10:30N 54°20' W 004°40'3 6.0
2017-Apr-07 09:58N 54°18' W 004°44'1 2.4
2017-Apr-07 09:30N 54°17' W 004°45'2 4.9
2017-Apr-07 09:00N 54°19' W 004°44'1 2.5
2017-Apr-07 08:30N 54°18' W 004°42'1 2.3
2017-Apr-07 07:59N 54°19' W 004°44'1 1.1
2017-Apr-07 07:30N 54°19' W 004°43'1 2.9
2017-Apr-07 07:00N 54°17' W 004°44'0 0.5
2017-Apr-07 06:30N 54°18' W 004°44'3 6.4
2017-Apr-07 05:59N 54°14' W 004°42'0 0.6
2017-Apr-07 05:22N 54°14' W 004°42'0 0.0
2017-Apr-07 04:55N 54°14' W 004°42'0 0.0
2017-Apr-07 04:25N 54°14' W 004°42'0 0.0
2017-Apr-07 03:58N 54°14' W 004°42'0 0.0
2017-Apr-07 03:19N 54°14' W 004°42'0 0.0
2017-Apr-07 01:37N 54°14' W 004°42'0 0.0
2017-Apr-07 01:22N 54°14' W 004°42'0 0.0
2017-Apr-06 21:31N 54°14' W 004°42'0 0.0
2017-Apr-06 21:19N 54°14' W 004°42'0 0.0
2017-Apr-06 20:46N 54°14' W 004°42'0 0.0
2017-Apr-06 19:58N 54°14' W 004°42'0 0.0
2017-Apr-06 19:28N 54°14' W 004°42'5 5.2
2017-Apr-06 18:32N 54°19' W 004°43'0 2.2
2017-Apr-06 18:30N 54°19' W 004°43'0 0.8
2017-Apr-06 18:00N 54°19' W 004°43'2 4.9
2017-Apr-06 17:30N 54°20' W 004°39'1 1.3
2017-Apr-06 16:57N 54°20' W 004°40'2 4.4
2017-Apr-06 16:30N 54°19' W 004°43'0 0.5
2017-Apr-06 16:00N 54°19' W 004°43'1 1.6
2017-Apr-06 15:30N 54°18' W 004°42'3 5.7
2017-Apr-06 15:00N 54°16' W 004°44'5 5.1
2017-Apr-06 14:00N 54°11' W 004°48'1 2.8
2017-Apr-06 13:30N 54°10' W 004°49'3 6.2
2017-Apr-06 13:00N 54°07' W 004°52'1 2.7
2017-Apr-06 12:30N 54°09' W 004°52'0 0.5
2017-Apr-06 12:00N 54°09' W 004°52'2 3.7
2017-Apr-06 11:30N 54°07' W 004°52'3 5.3
2017-Apr-06 10:58N 54°09' W 004°49'1 2.1
2017-Apr-06 10:27N 54°08' W 004°49'2 2.7
2017-Apr-06 09:44N 54°06' W 004°49'2 9.1
2017-Apr-06 09:29N 54°05' W 004°52'1 2.9
2017-Apr-06 09:00N 54°04' W 004°54'3 6.2
2017-Apr-06 08:29N 54°01' W 004°56'1 1.3
2017-Apr-06 08:00N 54°01' W 004°57'4 9.0
2017-Apr-06 07:30N 54°01' W 004°50'4 8.2
2017-Apr-06 06:58N 54°04' W 004°43'1 2.6
2017-Apr-06 06:30N 54°04' W 004°41'3 2.6
2017-Apr-06 05:17N 54°05' W 004°36'0 0.0
2017-Apr-06 04:14N 54°05' W 004°36'0 0.0
2017-Apr-06 03:59N 54°05' W 004°36'0 0.0
2017-Apr-06 03:29N 54°05' W 004°36'0 0.0
2017-Apr-06 01:38N 54°05' W 004°36'0 0.0
2017-Apr-06 01:26N 54°05' W 004°36'0 0.0
2017-Apr-06 00:53N 54°05' W 004°36'0 0.0
2017-Apr-06 00:17N 54°05' W 004°36'0 0.0
2017-Apr-05 23:59N 54°05' W 004°36'0 0.0
2017-Apr-05 23:23N 54°05' W 004°36'0 0.0
2017-Apr-05 22:53N 54°05' W 004°36'0 0.0
2017-Apr-05 21:53N 54°05' W 004°36'0 0.0
2017-Apr-05 19:29N 54°05' W 004°36'0 0.0
2017-Apr-05 18:44N 54°05' W 004°36'0 0.0
2017-Apr-05 18:26N 54°05' W 004°36'0 0.0
2017-Apr-05 17:47N 54°05' W 004°36'0 0.1
2017-Apr-05 17:30N 54°05' W 004°36'4 1.3
2017-Apr-05 14:50N 54°03' W 004°42'2 5.8
2017-Apr-05 14:29N 54°03' W 004°38'6 5.2
2017-Apr-05 13:24N 54°02' W 004°29'3 7.5
2017-Apr-05 13:00N 54°04' W 004°25'3 4.4
2017-Apr-05 12:23N 54°03' W 004°21'2 3.2
2017-Apr-05 11:53N 54°01' W 004°21'3 6.5
2017-Apr-05 11:30N 53°60' W 004°23'1 3.0
2017-Apr-05 11:00N 53°59' W 004°25'10 3.8
2017-Apr-05 08:30N 54°02' W 004°10'8 5.3
2017-Apr-05 07:05N 54°08' W 004°20'0 2.5
2017-Apr-05 07:00N 54°07' W 004°20'5 0.4
2017-Apr-04 18:42N 54°12' W 004°19'1 2.5
2017-Apr-04 18:08N 54°11' W 004°19'2 5.0
2017-Apr-04 17:45N 54°10' W 004°16'1 2.5
2017-Apr-04 17:26N 54°10' W 004°15'4 7.9
2017-Apr-04 16:57N 54°07' W 004°16'2 3.8
2017-Apr-04 16:21N 54°04' W 004°16'4 3.3
2017-Apr-04 15:16N 54°07' W 004°11'1 2.2
2017-Apr-04 14:54N 54°08' W 004°11'5 5.3
2017-Apr-04 14:00N 54°11' W 004°05'3 5.0
2017-Apr-04 13:27N 54°13' W 004°02'5 4.3
2017-Apr-04 12:22N 54°14' W 004°10'2 4.8
2017-Apr-04 11:58N 54°12' W 004°12'2 4.3
2017-Apr-04 11:25N 54°14' W 004°14'2 4.2
2017-Apr-04 11:00N 54°15' W 004°16'3 2.0
2017-Apr-04 09:22N 54°13' W 004°21'2 2.1
2017-Apr-04 08:39N 54°12' W 004°22'2 8.3
2017-Apr-04 08:23N 54°10' W 004°24'3 0.1
2017-Apr-02 18:01N 54°09' W 004°28'0 5.1
2017-Apr-02 18:00N 54°09' W 004°28'4 6.8
2017-Apr-02 17:24N 54°06' W 004°32'3 7.8
2017-Apr-02 17:00N 54°03' W 004°36'3 6.5
2017-Apr-02 16:30N 54°02' W 004°41'9 8.7
2017-Apr-02 15:31N 53°59' W 004°54'1 2.6
2017-Apr-02 15:00N 53°59' W 004°52'4 4.3
2017-Apr-02 13:59N 53°55' W 004°56'3 5.2
2017-Apr-02 13:24N 53°53' W 004°53'1 2.5
2017-Apr-02 12:51N 53°53' W 004°51'7 1.9
2017-Apr-02 09:01N 53°59' W 004°43'1 2.6
2017-Apr-02 08:42N 53°59' W 004°44'1 1.2
2017-Apr-02 07:58N 53°58' W 004°43'5 9.5
2017-Apr-02 07:26N 54°01' W 004°36'1 1.9
2017-Apr-02 06:54N 54°01' W 004°34'510.1
2017-Apr-02 06:26N 54°05' W 004°29'4 8.9
2017-Apr-02 05:58N 54°09' W 004°28'1 0.0
2017-Apr-01 09:58N 54°09' W 004°27'3 3.7
2017-Apr-01 09:11N 54°06' W 004°28'2 1.2
2017-Apr-01 07:47N 54°05' W 004°30'1 2.9
2017-Apr-01 07:29N 54°04' W 004°31'1 1.4
2017-Apr-01 07:01N 54°04' W 004°31'3 4.6
2017-Apr-01 06:20N 54°06' W 004°28'3 8.2
2017-Apr-01 06:00N 54°09' W 004°28'  

Dump ship's entire track history